TAF Text Data
IDs:
Format:
Raw Decoded Include METAR

Data at: 0252 UTC 19 Oct 2021

KVCT 182320Z 1900/1924 12009KT P6SM FEW040
  FM190300 09004KT P6SM FEW030 SCT250
  FM191700 14011G15KT P6SM SCT045 SCT250